sensor_id;sensor_type;location;lat;lon;timestamp;temperature;humidity
9790;DHT22;4934;50.852;8.098;2023-02-15T00:01:44;-2.00;99.90
9790;DHT22;4934;50.852;8.098;2023-02-15T00:04:13;-2.00;99.90
9790;DHT22;4934;50.852;8.098;2023-02-15T00:06:39;-2.10;99.90
9790;DHT22;4934;50.852;8.098;2023-02-15T00:09:04;-1.90;99.90
9790;DHT22;4934;50.852;8.098;2023-02-15T00:11:30;-1.80;99.90
9790;DHT22;4934;50.852;8.098;2023-02-15T00:14:11;-1.70;99.90
9790;DHT22;4934;50.852;8.098;2023-02-15T00:16:38;-1.90;99.90
9790;DHT22;4934;50.852;8.098;2023-02-15T00:19:04;-1.90;99.90
9790;DHT22;4934;50.852;8.098;2023-02-15T00:21:32;-1.90;99.90
9790;DHT22;4934;50.852;8.098;2023-02-15T00:23:59;-2.00;99.90
9790;DHT22;4934;50.852;8.098;2023-02-15T00:26:25;-2.00;99.90
9790;DHT22;4934;50.852;8.098;2023-02-15T00:28:51;-2.00;99.90
9790;DHT22;4934;50.852;8.098;2023-02-15T00:31:17;-2.00;99.90
9790;DHT22;4934;50.852;8.098;2023-02-15T00:33:43;-2.00;99.90
9790;DHT22;4934;50.852;8.098;2023-02-15T00:36:12;-2.00;99.90
9790;DHT22;4934;50.852;8.098;2023-02-15T00:38:37;-2.00;99.90
9790;DHT22;4934;50.852;8.098;2023-02-15T00:41:05;-2.00;99.90
9790;DHT22;4934;50.852;8.098;2023-02-15T00:43:32;-2.00;99.90
9790;DHT22;4934;50.852;8.098;2023-02-15T00:45:59;-2.00;99.90
9790;DHT22;4934;50.852;8.098;2023-02-15T00:48:24;-2.00;99.90
9790;DHT22;4934;50.852;8.098;2023-02-15T00:50:55;-2.00;99.90
9790;DHT22;4934;50.852;8.098;2023-02-15T00:53:21;-2.10;99.90
9790;DHT22;4934;50.852;8.098;2023-02-15T00:55:47;-2.10;99.90
9790;DHT22;4934;50.852;8.098;2023-02-15T00:58:14;-2.20;99.90
9790;DHT22;4934;50.852;8.098;2023-02-15T01:00:43;-2.10;99.90
9790;DHT22;4934;50.852;8.098;2023-02-15T01:03:10;-2.00;99.90
9790;DHT22;4934;50.852;8.098;2023-02-15T01:05:36;-2.00;99.90
9790;DHT22;4934;50.852;8.098;2023-02-15T01:08:01;-2.10;99.90
9790;DHT22;4934;50.852;8.098;2023-02-15T01:10:27;-2.10;99.90
9790;DHT22;4934;50.852;8.098;2023-02-15T01:12:54;-2.10;99.90
9790;DHT22;4934;50.852;8.098;2023-02-15T01:15:20;-2.00;99.90
9790;DHT22;4934;50.852;8.098;2023-02-15T01:17:46;-1.80;99.90
9790;DHT22;4934;50.852;8.098;2023-02-15T01:20:28;-1.90;99.90
9790;DHT22;4934;50.852;8.098;2023-02-15T01:22:54;-1.90;99.90
9790;DHT22;4934;50.852;8.098;2023-02-15T01:25:22;-2.00;99.90
9790;DHT22;4934;50.852;8.098;2023-02-15T01:27:48;-1.90;99.90
9790;DHT22;4934;50.852;8.098;2023-02-15T01:30:14;-2.00;99.90
9790;DHT22;4934;50.852;8.098;2023-02-15T01:32:41;-2.00;99.90
9790;DHT22;4934;50.852;8.098;2023-02-15T01:35:07;-2.10;99.90
9790;DHT22;4934;50.852;8.098;2023-02-15T01:37:34;-2.10;99.90
9790;DHT22;4934;50.852;8.098;2023-02-15T01:40:00;-2.00;99.90
9790;DHT22;4934;50.852;8.098;2023-02-15T01:42:27;-2.00;99.90
9790;DHT22;4934;50.852;8.098;2023-02-15T01:45:02;-2.00;99.90
9790;DHT22;4934;50.852;8.098;2023-02-15T01:47:42;-2.00;99.90
9790;DHT22;4934;50.852;8.098;2023-02-15T01:50:25;-2.00;99.90
9790;DHT22;4934;50.852;8.098;2023-02-15T01:53:01;-2.00;99.90
9790;DHT22;4934;50.852;8.098;2023-02-15T01:55:33;-1.90;99.90
9790;DHT22;4934;50.852;8.098;2023-02-15T01:58:00;-1.80;99.90
9790;DHT22;4934;50.852;8.098;2023-02-15T02:00:26;-1.70;99.90
9790;DHT22;4934;50.852;8.098;2023-02-15T02:02:53;-1.80;99.90
9790;DHT22;4934;50.852;8.098;2023-02-15T02:05:20;-1.90;99.90
9790;DHT22;4934;50.852;8.098;2023-02-15T02:07:46;-1.80;99.90
9790;DHT22;4934;50.852;8.098;2023-02-15T02:10:17;-1.80;99.90
9790;DHT22;4934;50.852;8.098;2023-02-15T02:12:45;-1.90;99.90
9790;DHT22;4934;50.852;8.098;2023-02-15T02:15:12;-1.90;99.90
9790;DHT22;4934;50.852;8.098;2023-02-15T02:17:56;-1.90;99.90
9790;DHT22;4934;50.852;8.098;2023-02-15T02:23:08;-2.10;99.90
9790;DHT22;4934;50.852;8.098;2023-02-15T02:25:56;-2.10;99.90
9790;DHT22;4934;50.852;8.098;2023-02-15T02:31:49;-2.10;99.90
9790;DHT22;4934;50.852;8.098;2023-02-15T02:34:46;-2.00;99.90
9790;DHT22;4934;50.852;8.098;2023-02-15T02:37:30;-2.00;99.90
9790;DHT22;4934;50.852;8.098;2023-02-15T02:42:43;-2.20;99.90
9790;DHT22;4934;50.852;8.098;2023-02-15T02:45:11;-2.20;99.90
9790;DHT22;4934;50.852;8.098;2023-02-15T02:47:52;-2.30;99.90
9790;DHT22;4934;50.852;8.098;2023-02-15T02:50:27;-2.40;99.90
9790;DHT22;4934;50.852;8.098;2023-02-15T02:52:55;-2.40;99.90
9790;DHT22;4934;50.852;8.098;2023-02-15T02:58:05;-2.30;99.90
9790;DHT22;4934;50.852;8.098;2023-02-15T03:00:36;-2.30;99.90
9790;DHT22;4934;50.852;8.098;2023-02-15T03:03:13;-2.40;99.90
9790;DHT22;4934;50.852;8.098;2023-02-15T03:05:43;-2.40;99.90
9790;DHT22;4934;50.852;8.098;2023-02-15T03:08:13;-2.50;99.90
9790;DHT22;4934;50.852;8.098;2023-02-15T03:10:48;-2.40;99.90
9790;DHT22;4934;50.852;8.098;2023-02-15T03:13:16;-2.40;99.90
9790;DHT22;4934;50.852;8.098;2023-02-15T03:15:44;-2.40;99.90
9790;DHT22;4934;50.852;8.098;2023-02-15T03:18:35;-2.20;99.90
9790;DHT22;4934;50.852;8.098;2023-02-15T03:21:02;-2.20;99.90
9790;DHT22;4934;50.852;8.098;2023-02-15T03:23:30;-2.20;99.90
9790;DHT22;4934;50.852;8.098;2023-02-15T03:26:03;-2.10;99.90
9790;DHT22;4934;50.852;8.098;2023-02-15T03:28:36;-2.10;99.90
9790;DHT22;4934;50.852;8.098;2023-02-15T03:31:05;-2.10;99.90
9790;DHT22;4934;50.852;8.098;2023-02-15T03:33:32;-2.20;99.90
9790;DHT22;4934;50.852;8.098;2023-02-15T03:36:08;-2.30;99.90
9790;DHT22;4934;50.852;8.098;2023-02-15T03:42:02;-2.20;99.90
9790;DHT22;4934;50.852;8.098;2023-02-15T03:44:32;-2.30;99.90
9790;DHT22;4934;50.852;8.098;2023-02-15T03:47:06;-2.30;99.90
9790;DHT22;4934;50.852;8.098;2023-02-15T03:49:57;-2.30;99.90
9790;DHT22;4934;50.852;8.098;2023-02-15T03:52:27;-2.30;99.90
9790;DHT22;4934;50.852;8.098;2023-02-15T03:54:53;-2.40;99.90
9790;DHT22;4934;50.852;8.098;2023-02-15T03:57:25;-2.40;99.90
9790;DHT22;4934;50.852;8.098;2023-02-15T04:00:21;-2.50;99.90
9790;DHT22;4934;50.852;8.098;2023-02-15T04:05:42;-2.60;99.90
9790;DHT22;4934;50.852;8.098;2023-02-15T04:08:09;-2.70;99.90
9790;DHT22;4934;50.852;8.098;2023-02-15T04:10:35;-2.70;99.90
9790;DHT22;4934;50.852;8.098;2023-02-15T04:13:23;-2.60;99.90
9790;DHT22;4934;50.852;8.098;2023-02-15T04:15:50;-2.60;99.90
9790;DHT22;4934;50.852;8.098;2023-02-15T04:21:20;-2.80;99.90
9790;DHT22;4934;50.852;8.098;2023-02-15T04:24:05;-2.70;99.90
9790;DHT22;4934;50.852;8.098;2023-02-15T04:26:50;-2.80;99.90
9790;DHT22;4934;50.852;8.098;2023-02-15T04:29:19;-2.80;99.90
9790;DHT22;4934;50.852;8.098;2023-02-15T04:31:44;-2.80;99.90
9790;DHT22;4934;50.852;8.098;2023-02-15T04:34:10;-2.80;99.90
9790;DHT22;4934;50.852;8.098;2023-02-15T04:36:37;-2.80;99.90
9790;DHT22;4934;50.852;8.098;2023-02-15T04:39:03;-2.80;99.90
9790;DHT22;4934;50.852;8.098;2023-02-15T04:41:28;-2.80;99.90
9790;DHT22;4934;50.852;8.098;2023-02-15T04:43:54;-2.80;99.90
9790;DHT22;4934;50.852;8.098;2023-02-15T04:46:20;-2.80;99.90
9790;DHT22;4934;50.852;8.098;2023-02-15T04:48:45;-2.80;99.90
9790;DHT22;4934;50.852;8.098;2023-02-15T04:51:11;-2.80;99.90
9790;DHT22;4934;50.852;8.098;2023-02-15T04:53:36;-2.80;99.90
9790;DHT22;4934;50.852;8.098;2023-02-15T04:56:02;-2.80;99.90
9790;DHT22;4934;50.852;8.098;2023-02-15T04:58:28;-2.80;99.90
9790;DHT22;4934;50.852;8.098;2023-02-15T05:00:57;-2.80;99.90
9790;DHT22;4934;50.852;8.098;2023-02-15T05:03:23;-2.80;99.90
9790;DHT22;4934;50.852;8.098;2023-02-15T05:05:49;-2.80;99.90
9790;DHT22;4934;50.852;8.098;2023-02-15T05:08:15;-2.80;99.90
9790;DHT22;4934;50.852;8.098;2023-02-15T05:10:41;-2.80;99.90
9790;DHT22;4934;50.852;8.098;2023-02-15T05:13:07;-2.90;99.90
9790;DHT22;4934;50.852;8.098;2023-02-15T05:15:32;-2.90;99.90
9790;DHT22;4934;50.852;8.098;2023-02-15T05:17:58;-2.90;99.90
9790;DHT22;4934;50.852;8.098;2023-02-15T05:20:24;-2.90;99.90
9790;DHT22;4934;50.852;8.098;2023-02-15T05:22:53;-3.00;99.90
9790;DHT22;4934;50.852;8.098;2023-02-15T05:25:20;-2.90;99.90
9790;DHT22;4934;50.852;8.098;2023-02-15T05:28:04;-2.80;99.90
9790;DHT22;4934;50.852;8.098;2023-02-15T05:31:22;-2.80;99.90
9790;DHT22;4934;50.852;8.098;2023-02-15T05:33:41;-2.80;99.90
9790;DHT22;4934;50.852;8.098;2023-02-15T05:36:07;-2.70;99.90
9790;DHT22;4934;50.852;8.098;2023-02-15T05:38:33;-2.80;99.90
9790;DHT22;4934;50.852;8.098;2023-02-15T05:40:59;-2.80;99.90
9790;DHT22;4934;50.852;8.098;2023-02-15T05:43:25;-2.80;99.90
9790;DHT22;4934;50.852;8.098;2023-02-15T05:45:52;-2.80;99.90
9790;DHT22;4934;50.852;8.098;2023-02-15T05:48:20;-2.80;99.90
9790;DHT22;4934;50.852;8.098;2023-02-15T05:50:46;-2.80;99.90
9790;DHT22;4934;50.852;8.098;2023-02-15T05:53:12;-2.70;99.90
9790;DHT22;4934;50.852;8.098;2023-02-15T05:55:39;-2.70;99.90
9790;DHT22;4934;50.852;8.098;2023-02-15T05:58:05;-2.70;99.90
9790;DHT22;4934;50.852;8.098;2023-02-15T06:00:31;-2.70;99.90
9790;DHT22;4934;50.852;8.098;2023-02-15T06:02:56;-2.70;99.90
9790;DHT22;4934;50.852;8.098;2023-02-15T06:05:22;-2.80;99.90
9790;DHT22;4934;50.852;8.098;2023-02-15T06:07:48;-2.80;99.90
9790;DHT22;4934;50.852;8.098;2023-02-15T06:10:13;-2.80;99.90
9790;DHT22;4934;50.852;8.098;2023-02-15T06:12:39;-2.90;99.90
9790;DHT22;4934;50.852;8.098;2023-02-15T06:15:05;-2.90;99.90
9790;DHT22;4934;50.852;8.098;2023-02-15T06:17:31;-2.80;99.90
9790;DHT22;4934;50.852;8.098;2023-02-15T06:19:56;-2.80;99.90
9790;DHT22;4934;50.852;8.098;2023-02-15T06:22:22;-2.90;99.90
9790;DHT22;4934;50.852;8.098;2023-02-15T06:24:48;-2.90;99.90
9790;DHT22;4934;50.852;8.098;2023-02-15T06:27:13;-3.00;99.90
9790;DHT22;4934;50.852;8.098;2023-02-15T06:29:39;-3.00;99.90
9790;DHT22;4934;50.852;8.098;2023-02-15T06:32:05;-2.90;99.90
9790;DHT22;4934;50.852;8.098;2023-02-15T06:34:31;-2.90;99.90
9790;DHT22;4934;50.852;8.098;2023-02-15T06:36:56;-2.90;99.90
9790;DHT22;4934;50.852;8.098;2023-02-15T06:39:22;-2.90;99.90
9790;DHT22;4934;50.852;8.098;2023-02-15T06:41:48;-3.00;99.90
9790;DHT22;4934;50.852;8.098;2023-02-15T06:44:13;-3.00;99.90
9790;DHT22;4934;50.852;8.098;2023-02-15T06:46:39;-3.00;99.90
9790;DHT22;4934;50.852;8.098;2023-02-15T06:49:05;-2.90;99.90
9790;DHT22;4934;50.852;8.098;2023-02-15T06:51:30;-2.90;99.90
9790;DHT22;4934;50.852;8.098;2023-02-15T06:53:56;-2.90;99.90
9790;DHT22;4934;50.852;8.098;2023-02-15T06:56:23;-2.90;99.90
9790;DHT22;4934;50.852;8.098;2023-02-15T06:58:49;-3.00;99.90
9790;DHT22;4934;50.852;8.098;2023-02-15T07:01:15;-3.00;99.90
9790;DHT22;4934;50.852;8.098;2023-02-15T07:03:41;-2.90;99.90
9790;DHT22;4934;50.852;8.098;2023-02-15T07:06:07;-2.90;99.90
9790;DHT22;4934;50.852;8.098;2023-02-15T07:08:35;-2.80;99.90
9790;DHT22;4934;50.852;8.098;2023-02-15T07:11:01;-2.90;99.90
9790;DHT22;4934;50.852;8.098;2023-02-15T07:13:46;-2.70;99.90
9790;DHT22;4934;50.852;8.098;2023-02-15T07:16:12;-2.80;99.90
9790;DHT22;4934;50.852;8.098;2023-02-15T07:18:38;-2.70;99.90
9790;DHT22;4934;50.852;8.098;2023-02-15T07:21:05;-2.70;99.90
9790;DHT22;4934;50.852;8.098;2023-02-15T07:23:36;-2.70;99.90
9790;DHT22;4934;50.852;8.098;2023-02-15T07:26:03;-2.70;99.90
9790;DHT22;4934;50.852;8.098;2023-02-15T07:28:29;-2.70;99.90
9790;DHT22;4934;50.852;8.098;2023-02-15T07:30:55;-2.60;99.90
9790;DHT22;4934;50.852;8.098;2023-02-15T07:33:20;-2.60;99.90
9790;DHT22;4934;50.852;8.098;2023-02-15T07:35:50;-2.50;99.90
9790;DHT22;4934;50.852;8.098;2023-02-15T07:38:17;-2.50;99.90
9790;DHT22;4934;50.852;8.098;2023-02-15T07:40:44;-2.40;99.90
9790;DHT22;4934;50.852;8.098;2023-02-15T07:43:10;-2.30;99.90
9790;DHT22;4934;50.852;8.098;2023-02-15T07:45:36;-2.30;99.90
9790;DHT22;4934;50.852;8.098;2023-02-15T07:48:02;-2.30;99.90
9790;DHT22;4934;50.852;8.098;2023-02-15T07:50:29;-2.20;99.90
9790;DHT22;4934;50.852;8.098;2023-02-15T07:52:54;-2.10;99.90
9790;DHT22;4934;50.852;8.098;2023-02-15T07:55:20;-2.00;99.90
9790;DHT22;4934;50.852;8.098;2023-02-15T07:57:48;-2.00;99.90
9790;DHT22;4934;50.852;8.098;2023-02-15T08:00:16;-2.00;99.90
9790;DHT22;4934;50.852;8.098;2023-02-15T08:02:42;-1.90;99.90
9790;DHT22;4934;50.852;8.098;2023-02-15T08:05:12;-1.80;99.90
9790;DHT22;4934;50.852;8.098;2023-02-15T08:07:38;-1.70;99.90
9790;DHT22;4934;50.852;8.098;2023-02-15T08:10:03;-1.60;99.90
9790;DHT22;4934;50.852;8.098;2023-02-15T08:12:29;-1.50;99.90
9790;DHT22;4934;50.852;8.098;2023-02-15T08:14:55;-1.40;99.90
9790;DHT22;4934;50.852;8.098;2023-02-15T08:17:20;-1.30;99.90
9790;DHT22;4934;50.852;8.098;2023-02-15T08:19:46;-1.20;99.90
9790;DHT22;4934;50.852;8.098;2023-02-15T08:22:13;-1.10;99.90
9790;DHT22;4934;50.852;8.098;2023-02-15T08:24:39;-1.00;99.90
9790;DHT22;4934;50.852;8.098;2023-02-15T08:27:10;-0.90;99.90
9790;DHT22;4934;50.852;8.098;2023-02-15T08:29:37;-0.80;99.90
9790;DHT22;4934;50.852;8.098;2023-02-15T08:32:09;-0.80;99.90
9790;DHT22;4934;50.852;8.098;2023-02-15T08:34:38;-0.70;99.90
9790;DHT22;4934;50.852;8.098;2023-02-15T08:37:04;-0.60;99.90
9790;DHT22;4934;50.852;8.098;2023-02-15T08:39:31;-0.50;99.90
9790;DHT22;4934;50.852;8.098;2023-02-15T08:41:57;-0.30;99.90
9790;DHT22;4934;50.852;8.098;2023-02-15T08:44:22;-0.20;99.90
9790;DHT22;4934;50.852;8.098;2023-02-15T08:46:49;-0.20;99.90
9790;DHT22;4934;50.852;8.098;2023-02-15T08:49:21;-0.10;99.90
9790;DHT22;4934;50.852;8.098;2023-02-15T08:51:48;0.00;99.90
9790;DHT22;4934;50.852;8.098;2023-02-15T08:54:17;0.10;99.90
9790;DHT22;4934;50.852;8.098;2023-02-15T08:56:43;0.10;99.90
9790;DHT22;4934;50.852;8.098;2023-02-15T08:59:20;0.30;99.90
9790;DHT22;4934;50.852;8.098;2023-02-15T09:01:49;0.40;99.90
9790;DHT22;4934;50.852;8.098;2023-02-15T09:04:15;0.40;99.90
9790;DHT22;4934;50.852;8.098;2023-02-15T09:06:42;0.40;99.90
9790;DHT22;4934;50.852;8.098;2023-02-15T09:09:09;0.50;99.90
9790;DHT22;4934;50.852;8.098;2023-02-15T09:11:41;0.60;99.90
9790;DHT22;4934;50.852;8.098;2023-02-15T09:14:12;0.70;99.90
9790;DHT22;4934;50.852;8.098;2023-02-15T09:16:42;0.70;99.90
9790;DHT22;4934;50.852;8.098;2023-02-15T09:19:11;0.80;99.90
9790;DHT22;4934;50.852;8.098;2023-02-15T09:21:38;0.90;99.90
9790;DHT22;4934;50.852;8.098;2023-02-15T09:24:06;0.90;99.90
9790;DHT22;4934;50.852;8.098;2023-02-15T09:26:34;1.00;99.90
9790;DHT22;4934;50.852;8.098;2023-02-15T09:29:00;1.10;99.90
9790;DHT22;4934;50.852;8.098;2023-02-15T09:31:33;1.20;99.90
9790;DHT22;4934;50.852;8.098;2023-02-15T09:34:00;1.30;99.90
9790;DHT22;4934;50.852;8.098;2023-02-15T09:36:32;1.30;99.90
9790;DHT22;4934;50.852;8.098;2023-02-15T09:42:14;1.40;99.90
9790;DHT22;4934;50.852;8.098;2023-02-15T09:50:43;1.70;99.90
9790;DHT22;4934;50.852;8.098;2023-02-15T10:06:42;2.00;99.90
9790;DHT22;4934;50.852;8.098;2023-02-15T10:10:14;2.10;99.90
9790;DHT22;4934;50.852;8.098;2023-02-15T10:12:40;2.30;99.90
9790;DHT22;4934;50.852;8.098;2023-02-15T10:26:31;2.70;99.90
9790;DHT22;4934;50.852;8.098;2023-02-15T10:34:38;2.90;99.90
9790;DHT22;4934;50.852;8.098;2023-02-15T10:40:22;3.00;99.90
9790;DHT22;4934;50.852;8.098;2023-02-15T10:43:20;3.00;99.90
9790;DHT22;4934;50.852;8.098;2023-02-15T10:51:03;3.30;99.90
9790;DHT22;4934;50.852;8.098;2023-02-15T11:01:47;3.40;99.90
9790;DHT22;4934;50.852;8.098;2023-02-15T11:07:06;3.50;99.90
9790;DHT22;4934;50.852;8.098;2023-02-15T11:09:49;3.70;99.90
9790;DHT22;4934;50.852;8.098;2023-02-15T11:12:19;3.70;99.90
9790;DHT22;4934;50.852;8.098;2023-02-15T11:14:57;3.90;99.90
9790;DHT22;4934;50.852;8.098;2023-02-15T11:17:29;3.90;99.90
9790;DHT22;4934;50.852;8.098;2023-02-15T11:20:28;3.90;99.90
9790;DHT22;4934;50.852;8.098;2023-02-15T11:22:51;3.90;99.90
9790;DHT22;4934;50.852;8.098;2023-02-15T11:25:23;3.90;99.90
9790;DHT22;4934;50.852;8.098;2023-02-15T11:27:49;4.00;99.90
9790;DHT22;4934;50.852;8.098;2023-02-15T11:30:24;4.10;99.90
9790;DHT22;4934;50.852;8.098;2023-02-15T11:32:53;4.20;99.90
9790;DHT22;4934;50.852;8.098;2023-02-15T11:38:01;4.40;99.90
9790;DHT22;4934;50.852;8.098;2023-02-15T11:40:59;4.50;99.90
9790;DHT22;4934;50.852;8.098;2023-02-15T11:43:39;4.70;99.90
9790;DHT22;4934;50.852;8.098;2023-02-15T11:46:05;4.80;99.90
9790;DHT22;4934;50.852;8.098;2023-02-15T11:48:33;4.90;99.90
9790;DHT22;4934;50.852;8.098;2023-02-15T11:51:00;4.90;99.90
9790;DHT22;4934;50.852;8.098;2023-02-15T11:53:31;5.00;99.90
9790;DHT22;4934;50.852;8.098;2023-02-15T11:55:57;5.10;99.90
9790;DHT22;4934;50.852;8.098;2023-02-15T12:01:22;5.30;99.90
9790;DHT22;4934;50.852;8.098;2023-02-15T12:03:56;5.40;99.90
9790;DHT22;4934;50.852;8.098;2023-02-15T12:06:27;5.40;99.90
9790;DHT22;4934;50.852;8.098;2023-02-15T12:11:37;5.50;99.90
9790;DHT22;4934;50.852;8.098;2023-02-15T12:14:13;5.60;99.90
9790;DHT22;4934;50.852;8.098;2023-02-15T12:16:44;5.70;99.90
9790;DHT22;4934;50.852;8.098;2023-02-15T12:19:37;5.60;99.90
9790;DHT22;4934;50.852;8.098;2023-02-15T12:22:10;5.70;99.90
9790;DHT22;4934;50.852;8.098;2023-02-15T12:24:47;5.70;99.90
9790;DHT22;4934;50.852;8.098;2023-02-15T12:27:18;5.60;99.90
9790;DHT22;4934;50.852;8.098;2023-02-15T12:29:49;5.70;99.90
9790;DHT22;4934;50.852;8.098;2023-02-15T12:32:28;5.80;99.90
9790;DHT22;4934;50.852;8.098;2023-02-15T12:35:00;5.80;99.90
9790;DHT22;4934;50.852;8.098;2023-02-15T12:37:29;5.90;99.90
9790;DHT22;4934;50.852;8.098;2023-02-15T12:39:59;5.90;99.90
9790;DHT22;4934;50.852;8.098;2023-02-15T12:42:27;6.00;99.90
9790;DHT22;4934;50.852;8.098;2023-02-15T12:44:56;6.10;99.90
9790;DHT22;4934;50.852;8.098;2023-02-15T12:47:22;6.10;99.90
9790;DHT22;4934;50.852;8.098;2023-02-15T12:50:13;6.10;99.90
9790;DHT22;4934;50.852;8.098;2023-02-15T12:52:47;6.10;99.90
9790;DHT22;4934;50.852;8.098;2023-02-15T12:55:26;6.10;99.90
9790;DHT22;4934;50.852;8.098;2023-02-15T12:58:16;6.10;99.90
9790;DHT22;4934;50.852;8.098;2023-02-15T13:00:42;6.20;99.90
9790;DHT22;4934;50.852;8.098;2023-02-15T13:03:17;6.30;99.90
9790;DHT22;4934;50.852;8.098;2023-02-15T13:05:46;6.40;99.90
9790;DHT22;4934;50.852;8.098;2023-02-15T13:08:18;6.40;99.90
9790;DHT22;4934;50.852;8.098;2023-02-15T13:11:03;6.40;99.90
9790;DHT22;4934;50.852;8.098;2023-02-15T13:13:32;6.40;99.90
9790;DHT22;4934;50.852;8.098;2023-02-15T13:16:09;6.40;99.90
9790;DHT22;4934;50.852;8.098;2023-02-15T13:18:39;6.40;99.90
9790;DHT22;4934;50.852;8.098;2023-02-15T13:21:18;6.40;99.90
9790;DHT22;4934;50.852;8.098;2023-02-15T13:23:48;6.40;99.90
9790;DHT22;4934;50.852;8.098;2023-02-15T13:26:19;6.50;99.90
9790;DHT22;4934;50.852;8.098;2023-02-15T13:28:48;6.40;99.90
9790;DHT22;4934;50.852;8.098;2023-02-15T13:31:18;6.40;99.90
9790;DHT22;4934;50.852;8.098;2023-02-15T13:33:58;6.40;99.90
9790;DHT22;4934;50.852;8.098;2023-02-15T13:45:10;6.30;99.90
9790;DHT22;4934;50.852;8.098;2023-02-15T13:47:43;6.20;99.90
9790;DHT22;4934;50.852;8.098;2023-02-15T13:55:54;6.20;99.90
9790;DHT22;4934;50.852;8.098;2023-02-15T14:13:05;5.90;99.90
9790;DHT22;4934;50.852;8.098;2023-02-15T14:18:17;5.80;99.90
9790;DHT22;4934;50.852;8.098;2023-02-15T14:21:15;5.70;99.90
9790;DHT22;4934;50.852;8.098;2023-02-15T14:26:47;5.60;99.90
9790;DHT22;4934;50.852;8.098;2023-02-15T14:29:26;5.70;99.90
9790;DHT22;4934;50.852;8.098;2023-02-15T14:32:00;5.70;99.90
9790;DHT22;4934;50.852;8.098;2023-02-15T14:34:36;5.60;99.90
9790;DHT22;4934;50.852;8.098;2023-02-15T14:37:03;5.50;99.90
9790;DHT22;4934;50.852;8.098;2023-02-15T14:42:38;5.40;99.90
9790;DHT22;4934;50.852;8.098;2023-02-15T14:45:32;5.50;99.90
9790;DHT22;4934;50.852;8.098;2023-02-15T14:48:12;5.60;99.90
9790;DHT22;4934;50.852;8.098;2023-02-15T14:50:46;5.40;99.90
9790;DHT22;4934;50.852;8.098;2023-02-15T15:01:26;5.30;99.90
9790;DHT22;4934;50.852;8.098;2023-02-15T15:03:59;5.40;99.90
9790;DHT22;4934;50.852;8.098;2023-02-15T15:06:38;5.20;99.90
9790;DHT22;4934;50.852;8.098;2023-02-15T15:09:12;5.20;99.90
9790;DHT22;4934;50.852;8.098;2023-02-15T15:11:40;5.10;99.90
9790;DHT22;4934;50.852;8.098;2023-02-15T15:14:07;5.00;99.90
9790;DHT22;4934;50.852;8.098;2023-02-15T15:19:12;4.70;99.90
9790;DHT22;4934;50.852;8.098;2023-02-15T15:41:29;3.70;99.90
9790;DHT22;4934;50.852;8.098;2023-02-15T15:49:01;3.30;99.90
9790;DHT22;4934;50.852;8.098;2023-02-15T15:51:30;3.30;99.90
9790;DHT22;4934;50.852;8.098;2023-02-15T15:53:56;3.30;99.90
9790;DHT22;4934;50.852;8.098;2023-02-15T15:56:35;3.30;99.90
9790;DHT22;4934;50.852;8.098;2023-02-15T15:59:06;3.20;99.90
9790;DHT22;4934;50.852;8.098;2023-02-15T16:01:40;3.10;99.90
9790;DHT22;4934;50.852;8.098;2023-02-15T16:04:13;3.00;99.90
9790;DHT22;4934;50.852;8.098;2023-02-15T16:06:39;3.20;99.90
9790;DHT22;4934;50.852;8.098;2023-02-15T16:09:21;3.10;99.90
9790;DHT22;4934;50.852;8.098;2023-02-15T16:11:54;2.90;99.90
9790;DHT22;4934;50.852;8.098;2023-02-15T16:14:28;2.80;99.90
9790;DHT22;4934;50.852;8.098;2023-02-15T16:16:58;2.60;99.90
9790;DHT22;4934;50.852;8.098;2023-02-15T16:19:31;2.50;99.90
9790;DHT22;4934;50.852;8.098;2023-02-15T16:21:59;2.50;99.90
9790;DHT22;4934;50.852;8.098;2023-02-15T16:27:11;2.30;99.90
9790;DHT22;4934;50.852;8.098;2023-02-15T16:29:40;2.30;99.90
9790;DHT22;4934;50.852;8.098;2023-02-15T16:32:17;2.20;99.90
9790;DHT22;4934;50.852;8.098;2023-02-15T16:35:01;2.10;99.90
9790;DHT22;4934;50.852;8.098;2023-02-15T16:37:32;2.20;99.90
9790;DHT22;4934;50.852;8.098;2023-02-15T16:39:58;2.10;99.90
9790;DHT22;4934;50.852;8.098;2023-02-15T16:42:24;2.10;99.90
9790;DHT22;4934;50.852;8.098;2023-02-15T16:45:13;2.00;99.90
9790;DHT22;4934;50.852;8.098;2023-02-15T16:47:46;2.00;99.90
9790;DHT22;4934;50.852;8.098;2023-02-15T16:50:20;1.90;99.90
9790;DHT22;4934;50.852;8.098;2023-02-15T16:52:48;1.80;99.90
9790;DHT22;4934;50.852;8.098;2023-02-15T16:55:25;1.60;99.90
9790;DHT22;4934;50.852;8.098;2023-02-15T16:57:55;1.40;99.90
9790;DHT22;4934;50.852;8.098;2023-02-15T17:00:25;1.30;99.90
9790;DHT22;4934;50.852;8.098;2023-02-15T17:03:03;1.30;99.90
9790;DHT22;4934;50.852;8.098;2023-02-15T17:05:45;1.40;99.90
9790;DHT22;4934;50.852;8.098;2023-02-15T17:08:17;1.30;99.90
9790;DHT22;4934;50.852;8.098;2023-02-15T17:10:46;1.50;99.90
9790;DHT22;4934;50.852;8.098;2023-02-15T17:13:27;1.40;99.90
9790;DHT22;4934;50.852;8.098;2023-02-15T17:18:31;1.50;99.90
9790;DHT22;4934;50.852;8.098;2023-02-15T17:21:08;1.30;99.90
9790;DHT22;4934;50.852;8.098;2023-02-15T17:23:40;1.20;99.90
9790;DHT22;4934;50.852;8.098;2023-02-15T17:26:15;1.10;99.90
9790;DHT22;4934;50.852;8.098;2023-02-15T17:28:50;1.10;99.90
9790;DHT22;4934;50.852;8.098;2023-02-15T17:31:17;1.00;99.90
9790;DHT22;4934;50.852;8.098;2023-02-15T17:33:44;1.20;99.90
9790;DHT22;4934;50.852;8.098;2023-02-15T17:36:13;1.10;99.90
9790;DHT22;4934;50.852;8.098;2023-02-15T17:39:01;1.00;99.90
9790;DHT22;4934;50.852;8.098;2023-02-15T17:41:29;0.90;99.90
9790;DHT22;4934;50.852;8.098;2023-02-15T17:43:56;0.80;99.90
9790;DHT22;4934;50.852;8.098;2023-02-15T17:46:22;0.80;99.90
9790;DHT22;4934;50.852;8.098;2023-02-15T17:48:50;0.70;99.90
9790;DHT22;4934;50.852;8.098;2023-02-15T17:51:18;0.70;99.90
9790;DHT22;4934;50.852;8.098;2023-02-15T17:53:44;0.70;99.90
9790;DHT22;4934;50.852;8.098;2023-02-15T17:56:30;0.60;99.90
9790;DHT22;4934;50.852;8.098;2023-02-15T17:58:58;0.60;99.90
9790;DHT22;4934;50.852;8.098;2023-02-15T18:01:24;0.60;99.90
9790;DHT22;4934;50.852;8.098;2023-02-15T18:04:11;0.50;99.90
9790;DHT22;4934;50.852;8.098;2023-02-15T18:06:57;0.50;99.90
9790;DHT22;4934;50.852;8.098;2023-02-15T18:09:42;0.50;99.90
9790;DHT22;4934;50.852;8.098;2023-02-15T18:12:27;0.50;99.90
9790;DHT22;4934;50.852;8.098;2023-02-15T18:14:54;0.50;99.90
9790;DHT22;4934;50.852;8.098;2023-02-15T18:19:59;0.40;99.90
9790;DHT22;4934;50.852;8.098;2023-02-15T18:22:27;0.40;99.90
9790;DHT22;4934;50.852;8.098;2023-02-15T18:24:54;0.40;99.90
9790;DHT22;4934;50.852;8.098;2023-02-15T18:27:19;0.50;99.90
9790;DHT22;4934;50.852;8.098;2023-02-15T18:29:45;0.40;99.90
9790;DHT22;4934;50.852;8.098;2023-02-15T18:32:18;0.40;99.90
9790;DHT22;4934;50.852;8.098;2023-02-15T18:34:48;0.30;99.90
9790;DHT22;4934;50.852;8.098;2023-02-15T18:37:21;0.30;99.90
9790;DHT22;4934;50.852;8.098;2023-02-15T18:39:49;0.30;99.90
9790;DHT22;4934;50.852;8.098;2023-02-15T18:42:21;0.20;99.90
9790;DHT22;4934;50.852;8.098;2023-02-15T18:44:48;0.20;99.90
9790;DHT22;4934;50.852;8.098;2023-02-15T18:47:15;0.20;99.90
9790;DHT22;4934;50.852;8.098;2023-02-15T18:49:40;0.20;99.90
9790;DHT22;4934;50.852;8.098;2023-02-15T18:52:16;0.20;99.90
9790;DHT22;4934;50.852;8.098;2023-02-15T18:54:43;0.20;99.90
9790;DHT22;4934;50.852;8.098;2023-02-15T18:57:14;0.20;99.90
9790;DHT22;4934;50.852;8.098;2023-02-15T18:59:40;0.20;99.90
9790;DHT22;4934;50.852;8.098;2023-02-15T19:02:12;0.10;99.90
9790;DHT22;4934;50.852;8.098;2023-02-15T19:04:38;0.10;99.90
9790;DHT22;4934;50.852;8.098;2023-02-15T19:07:05;0.00;99.90
9790;DHT22;4934;50.852;8.098;2023-02-15T19:09:31;0.10;99.90
9790;DHT22;4934;50.852;8.098;2023-02-15T19:11:58;0.10;99.90
9790;DHT22;4934;50.852;8.098;2023-02-15T19:14:31;0.10;99.90
9790;DHT22;4934;50.852;8.098;2023-02-15T19:16:58;0.10;99.90
9790;DHT22;4934;50.852;8.098;2023-02-15T19:19:25;0.10;99.90
9790;DHT22;4934;50.852;8.098;2023-02-15T19:21:51;0.10;99.90